Time,TemperatureF,DewpointF,PressureIn,WindDirection,WindDirectionDegrees,WindSpeedMPH,WindSpeedGustMPH,Humidity,HourlyPrecipIn,Conditions,Clouds,dailyrainin,SoftwareType,DateUTC
2017-05-28 00:01:00,54.9,51.7,30.09,WNW,286,19.6,19.6,89,0.00,CLR,,0.00,WeatherDisplay:10.37,2017-05-28 07:01:00,
2017-05-28 00:06:00,54.9,51.7,30.08,WNW,286,19.6,19.6,89,0.00,CLR,,0.00,WeatherDisplay:10.37,2017-05-28 07:06:00,
2017-05-28 00:12:00,54.8,51.6,30.08,WNW,290,19.6,19.6,89,0.00,CLR,,0.00,WeatherDisplay:10.37,2017-05-28 07:12:00,
2017-05-28 00:17:00,54.8,51.6,30.09,West,281,19.6,19.6,89,0.00,CLR,,0.00,WeatherDisplay:10.37,2017-05-28 07:17:00,
2017-05-28 00:21:00,54.8,51.6,30.08,WNW,292,21.0,21.0,89,0.00,CLR,,0.00,WeatherDisplay:10.37,2017-05-28 07:21:00,
2017-05-28 00:26:00,54.8,51.6,30.08,WNW,295,20.7,20.7,89,0.00,CLR,,0.00,WeatherDisplay:10.37,2017-05-28 07:26:00,
2017-05-28 00:31:00,54.8,51.6,30.08,WNW,291,21.0,21.0,89,0.00,CLR,,0.00,WeatherDisplay:10.37,2017-05-28 07:31:00,
2017-05-28 00:36:00,54.7,51.5,30.08,WNW,295,20.0,20.0,89,0.00,CLR,,0.00,WeatherDisplay:10.37,2017-05-28 07:36:00,
2017-05-28 00:41:00,54.7,51.5,30.08,WNW,285,18.4,18.4,89,0.00,CLR,,0.00,WeatherDisplay:10.37,2017-05-28 07:41:00,
2017-05-28 00:46:00,54.7,51.5,30.08,WNW,284,20.7,20.7,89,0.00,CLR,,0.00,WeatherDisplay:10.37,2017-05-28 07:46:00,
2017-05-28 00:51:00,54.7,51.5,30.08,WNW,293,18.4,18.4,89,0.00,CLR,,0.00,WeatherDisplay:10.37,2017-05-28 07:51:00,
2017-05-28 00:54:00,54.6,51.4,30.08,WNW,293,20.0,20.0,89,0.00,CLR,,0.00,WeatherDisplay:10.37,2017-05-28 07:54:00,
2017-05-28 00:59:00,54.6,51.4,30.08,WNW,285,19.6,19.6,89,0.00,CLR,,0.00,WeatherDisplay:10.37,2017-05-28 07:59:00,
2017-05-28 01:04:00,54.6,51.4,30.08,West,281,19.6,19.6,89,0.00,CLR,,0.00,WeatherDisplay:10.37,2017-05-28 08:04:00,
2017-05-28 01:09:00,54.6,51.4,30.08,WNW,288,19.6,19.6,89,0.00,CLR,,0.00,WeatherDisplay:10.37,2017-05-28 08:09:00,
2017-05-28 01:14:00,54.6,51.4,30.08,WNW,288,19.6,19.6,89,0.00,CLR,,0.00,WeatherDisplay:10.37,2017-05-28 08:14:00,
2017-05-28 01:19:00,54.6,51.4,30.08,WNW,294,20.7,20.7,89,0.00,CLR,,0.00,WeatherDisplay:10.37,2017-05-28 08:19:00,
2017-05-28 01:24:00,54.5,51.3,30.08,WNW,282,21.9,21.9,89,0.00,CLR,,0.00,WeatherDisplay:10.37,2017-05-28 08:24:00,
2017-05-28 01:29:00,54.4,51.2,30.08,WNW,293,20.7,20.7,89,0.00,CLR,,0.00,WeatherDisplay:10.37,2017-05-28 08:29:00,
2017-05-28 01:34:00,54.4,51.5,30.08,WNW,296,19.6,19.6,90,0.00,CLR,,0.00,WeatherDisplay:10.37,2017-05-28 08:34:00,
2017-05-28 01:38:00,54.4,51.5,30.08,WNW,285,21.9,21.9,90,0.00,CLR,,0.00,WeatherDisplay:10.37,2017-05-28 08:38:00,
2017-05-28 01:43:00,54.3,51.4,30.08,WNW,286,20.7,20.7,90,0.00,CLR,,0.00,WeatherDisplay:10.37,2017-05-28 08:43:00,
2017-05-28 01:48:00,54.3,51.4,30.08,West,274,22.0,22.0,90,0.00,CLR,,0.00,WeatherDisplay:10.37,2017-05-28 08:48:00,
2017-05-28 01:53:00,54.2,51.3,30.08,West,277,22.0,22.0,90,0.00,CLR,,0.00,WeatherDisplay:10.37,2017-05-28 08:53:00,
2017-05-28 01:58:00,54.2,51.3,30.08,WNW,287,20.0,20.0,90,0.00,CLR,,0.00,WeatherDisplay:10.37,2017-05-28 08:58:00,
2017-05-28 02:03:00,54.2,51.3,30.08,WNW,292,19.6,19.6,90,0.00,CLR,,0.00,WeatherDisplay:10.37,2017-05-28 09:03:00,
2017-05-28 02:08:00,54.2,51.3,30.07,WNW,288,19.6,19.6,90,0.00,CLR,,0.00,WeatherDisplay:10.37,2017-05-28 09:08:00,
2017-05-28 02:13:00,54.2,51.3,30.08,WNW,294,19.6,19.6,90,0.00,CLR,,0.00,WeatherDisplay:10.37,2017-05-28 09:13:00,
2017-05-28 02:18:00,54.1,51.2,30.08,WNW,293,19.0,19.0,90,0.00,CLR,,0.00,WeatherDisplay:10.37,2017-05-28 09:18:00,